BAW23M EGAC-EGLL
Flight info
| Callsign | BAW23M |
|---|---|
| Flight time | N/A |
| Altitude | 33000 |
| Route | DCT DUFFY L10 RINGA Q39 BABGU DCT ETIGA DCT INKOB Q39 NOMSU UQ4 WAL UY53 NUGRA NUGRA1H |
| Aircraft | A320/M-SDE3FGHIRWY/LB1 |
Departure
| Time | 2026-04-18 10:54 |
|---|---|
| Airport | George Best Belfast City Airport (EGAC) |
Arrival
| Time | N/A |
|---|---|
| Airport | London Heathrow Airport (EGLL) |
| Time | Latitude | Longitude | Altitude | Speed | Heading |
|---|---|---|---|---|---|
| 2026-04-18 10:48 | 54.61465 | -5.87302 | 24 ft | 0 kts | 34° |
| 2026-04-18 10:50 | 54.61493 | -5.87268 | 24 ft | 13 kts | 36° |
| 2026-04-18 10:50 | 54.61579 | -5.87167 | 22 ft | 15 kts | 37° |
| 2026-04-18 10:50 | 54.61668 | -5.87058 | 22 ft | 15 kts | 33° |
| 2026-04-18 10:50 | 54.61763 | -5.87005 | 21 ft | 15 kts | 331° |
| 2026-04-18 10:51 | 54.61835 | -5.87162 | 21 ft | 17 kts | 328° |
| 2026-04-18 10:51 | 54.61938 | -5.87099 | 21 ft | 18 kts | 35° |
| 2026-04-18 10:51 | 54.62048 | -5.86969 | 20 ft | 20 kts | 35° |
| 2026-04-18 10:51 | 54.62171 | -5.86821 | 20 ft | 22 kts | 34° |
| 2026-04-18 10:52 | 54.62303 | -5.86665 | 21 ft | 24 kts | 34° |
| 2026-04-18 10:52 | 54.62401 | -5.86530 | 22 ft | 16 kts | 57° |
| 2026-04-18 10:52 | 54.62476 | -5.86445 | 21 ft | 8 kts | 316° |
| 2026-04-18 10:52 | 54.62443 | -5.86505 | 22 ft | 10 kts | 201° |
| 2026-04-18 10:53 | 54.62422 | -5.86524 | 23 ft | 0 kts | 212° |
| 2026-04-18 10:53 | 54.62420 | -5.86526 | 23 ft | 2 kts | 212° |
| 2026-04-18 10:53 | 54.62252 | -5.86728 | 22 ft | 67 kts | 214° |
| 2026-04-18 10:53 | 54.61685 | -5.87402 | 26 ft | 126 kts | 215° |
| 2026-04-18 10:54 | 54.60921 | -5.88330 | 444 ft | 135 kts | 222° |
| 2026-04-18 10:54 | 54.60153 | -5.89257 | 1067 ft | 134 kts | 222° |
| 2026-04-18 10:54 | 54.59370 | -5.90193 | 1518 ft | 144 kts | 222° |
| 2026-04-18 10:54 | 54.58364 | -5.90881 | 1807 ft | 176 kts | 188° |
| 2026-04-18 10:55 | 54.57089 | -5.90329 | 2081 ft | 206 kts | 160° |
| 2026-04-18 10:55 | 54.55693 | -5.89277 | 2384 ft | 231 kts | 160° |
| 2026-04-18 10:55 | 54.54143 | -5.88120 | 2788 ft | 255 kts | 159° |
| 2026-04-18 10:55 | 54.52451 | -5.86832 | 3372 ft | 273 kts | 154° |
| 2026-04-18 10:56 | 54.50954 | -5.84775 | 4261 ft | 282 kts | 129° |
| 2026-04-18 10:56 | 54.49817 | -5.81996 | 5272 ft | 286 kts | 124° |
| 2026-04-18 10:56 | 54.48692 | -5.79149 | 6260 ft | 289 kts | 125° |
| 2026-04-18 10:56 | 54.47554 | -5.76276 | 7194 ft | 292 kts | 125° |
| 2026-04-18 10:57 | 54.46405 | -5.73388 | 8049 ft | 295 kts | 126° |
| 2026-04-18 10:57 | 54.45234 | -5.70464 | 8929 ft | 299 kts | 126° |
| 2026-04-18 10:57 | 54.44041 | -5.67501 | 9790 ft | 303 kts | 126° |
| 2026-04-18 10:57 | 54.42834 | -5.64516 | 10599 ft | 306 kts | 127° |
| 2026-04-18 10:58 | 54.41610 | -5.61495 | 11292 ft | 314 kts | 127° |
| 2026-04-18 10:58 | 54.40762 | -5.59405 | 11450 ft | 330 kts | 127° |
| 2026-04-18 10:58 | 54.39413 | -5.56078 | 11789 ft | 347 kts | 127° |
| 2026-04-18 10:58 | 54.37573 | -5.51525 | 12707 ft | 353 kts | 127° |
| 2026-04-18 10:59 | 54.36173 | -5.48050 | 13485 ft | 355 kts | 127° |
| 2026-04-18 10:59 | 54.34761 | -5.44553 | 14191 ft | 358 kts | 127° |
| 2026-04-18 10:59 | 54.33793 | -5.42168 | 14610 ft | 360 kts | 127° |
| 2026-04-18 10:59 | 54.32353 | -5.38630 | 15219 ft | 364 kts | 127° |
| 2026-04-18 11:00 | 54.30891 | -5.35053 | 15811 ft | 368 kts | 127° |
| 2026-04-18 11:00 | 54.29416 | -5.31448 | 16409 ft | 372 kts | 127° |
| 2026-04-18 11:00 | 54.27942 | -5.27843 | 17027 ft | 376 kts | 128° |
| 2026-04-18 11:00 | 54.26378 | -5.24241 | 17617 ft | 379 kts | 130° |
| 2026-04-18 11:01 | 54.24725 | -5.20709 | 18217 ft | 382 kts | 131° |
| 2026-04-18 11:01 | 54.23017 | -5.17210 | 18770 ft | 386 kts | 132° |
| 2026-04-18 11:01 | 54.21274 | -5.13694 | 19302 ft | 389 kts | 133° |
| 2026-04-18 11:02 | 54.17753 | -5.06557 | 20374 ft | 396 kts | 132° |
| 2026-04-18 11:02 | 54.15978 | -5.02913 | 20898 ft | 400 kts | 132° |
| 2026-04-18 11:02 | 54.14201 | -4.99244 | 21402 ft | 403 kts | 132° |
| 2026-04-18 11:02 | 54.12404 | -4.95524 | 21835 ft | 408 kts | 132° |
| 2026-04-18 11:03 | 54.10593 | -4.91781 | 22306 ft | 412 kts | 132° |
| 2026-04-18 11:03 | 54.08761 | -4.88001 | 22802 ft | 415 kts | 132° |
| 2026-04-18 11:03 | 54.06909 | -4.84194 | 23280 ft | 418 kts | 132° |
| 2026-04-18 11:03 | 54.05046 | -4.80378 | 23762 ft | 421 kts | 132° |
| 2026-04-18 11:04 | 54.03183 | -4.76500 | 24173 ft | 424 kts | 131° |
| 2026-04-18 11:04 | 54.01371 | -4.72527 | 24588 ft | 427 kts | 130° |
| 2026-04-18 11:04 | 53.99586 | -4.68466 | 25017 ft | 429 kts | 129° |
| 2026-04-18 11:04 | 53.97807 | -4.64374 | 25417 ft | 432 kts | 129° |
| 2026-04-18 11:05 | 53.96009 | -4.60259 | 25805 ft | 434 kts | 129° |
| 2026-04-18 11:05 | 53.94193 | -4.56144 | 26194 ft | 437 kts | 130° |
| 2026-04-18 11:05 | 53.92378 | -4.52072 | 26579 ft | 440 kts | 130° |
| 2026-04-18 11:05 | 53.90519 | -4.47938 | 26924 ft | 442 kts | 131° |
| 2026-04-18 11:06 | 53.88644 | -4.43790 | 27306 ft | 444 kts | 131° |
| 2026-04-18 11:06 | 53.86761 | -4.39621 | 27686 ft | 447 kts | 130° |
| 2026-04-18 11:06 | 53.84919 | -4.35352 | 28070 ft | 450 kts | 129° |
| 2026-04-18 11:06 | 53.83127 | -4.30987 | 28454 ft | 453 kts | 128° |
| 2026-04-18 11:07 | 53.81355 | -4.26556 | 28833 ft | 456 kts | 127° |
| 2026-04-18 11:07 | 53.79579 | -4.22087 | 29211 ft | 458 kts | 127° |
| 2026-04-18 11:07 | 53.77787 | -4.17607 | 29580 ft | 461 kts | 128° |
| 2026-04-18 11:07 | 53.75967 | -4.13120 | 29919 ft | 464 kts | 129° |
| 2026-04-18 11:08 | 53.74120 | -4.08620 | 30257 ft | 467 kts | 129° |
| 2026-04-18 11:08 | 53.72250 | -4.04107 | 30545 ft | 470 kts | 129° |
| 2026-04-18 11:08 | 53.70365 | -3.99578 | 30842 ft | 472 kts | 129° |
| 2026-04-18 11:08 | 53.68475 | -3.95044 | 31240 ft | 472 kts | 129° |
| 2026-04-18 11:09 | 53.66585 | -3.90510 | 31636 ft | 471 kts | 129° |
| 2026-04-18 11:09 | 53.64704 | -3.85995 | 32068 ft | 471 kts | 129° |
| 2026-04-18 11:09 | 53.62821 | -3.81475 | 32487 ft | 471 kts | 129° |
| 2026-04-18 11:09 | 53.60961 | -3.77013 | 32883 ft | 471 kts | 129° |
| 2026-04-18 11:10 | 53.59294 | -3.73019 | 33151 ft | 472 kts | 129° |
| 2026-04-18 11:10 | 53.57411 | -3.68516 | 33225 ft | 468 kts | 129° |
| 2026-04-18 11:10 | 53.53671 | -3.59608 | 33229 ft | 465 kts | 130° |
| 2026-04-18 11:11 | 53.49921 | -3.50726 | 33225 ft | 466 kts | 130° |
| 2026-04-18 11:11 | 53.46393 | -3.41574 | 33230 ft | 471 kts | 120° |
| 2026-04-18 11:12 | 53.43791 | -3.31435 | 33228 ft | 473 kts | 116° |
| 2026-04-18 11:12 | 53.41200 | -3.21258 | 33222 ft | 473 kts | 117° |
| 2026-04-18 11:13 | 53.38306 | -3.11509 | 33223 ft | 467 kts | 129° |
| 2026-04-18 11:13 | 53.34453 | -3.02820 | 33210 ft | 465 kts | 131° |
| 2026-04-18 11:14 | 53.30582 | -2.94125 | 33221 ft | 465 kts | 131° |
| 2026-04-18 11:14 | 53.26715 | -2.85458 | 33222 ft | 465 kts | 131° |
| 2026-04-18 11:15 | 53.22843 | -2.76811 | 33220 ft | 465 kts | 131° |
| 2026-04-18 11:15 | 53.18964 | -2.68184 | 33213 ft | 464 kts | 132° |
| 2026-04-18 11:16 | 53.15071 | -2.59590 | 33208 ft | 464 kts | 132° |
| 2026-04-18 11:16 | 53.11263 | -2.50975 | 33217 ft | 465 kts | 130° |
| 2026-04-18 11:17 | 53.07622 | -2.41997 | 33208 ft | 466 kts | 128° |
| 2026-04-18 11:17 | 53.03952 | -2.33221 | 33215 ft | 461 kts | 136° |
| 2026-04-18 11:18 | 52.99201 | -2.26396 | 33212 ft | 446 kts | 154° |
| 2026-04-18 11:18 | 52.93946 | -2.20941 | 33196 ft | 445 kts | 154° |
| 2026-04-18 11:19 | 52.88705 | -2.15454 | 33214 ft | 445 kts | 154° |
| 2026-04-18 11:19 | 52.86085 | -2.12709 | 33109 ft | 446 kts | 154° |
| 2026-04-18 11:19 | 52.83445 | -2.09947 | 32211 ft | 451 kts | 154° |
| 2026-04-18 11:20 | 52.80795 | -2.07179 | 31663 ft | 448 kts | 154° |
| 2026-04-18 11:20 | 52.78170 | -2.04442 | 31155 ft | 444 kts | 154° |
| 2026-04-18 11:20 | 52.75568 | -2.01736 | 30640 ft | 440 kts | 154° |
| 2026-04-18 11:20 | 52.72985 | -1.99057 | 30105 ft | 436 kts | 155° |
| 2026-04-18 11:21 | 52.70438 | -1.96417 | 29597 ft | 430 kts | 155° |
| 2026-04-18 11:21 | 52.67922 | -1.93810 | 29122 ft | 424 kts | 155° |
| 2026-04-18 11:21 | 52.65439 | -1.91240 | 28658 ft | 418 kts | 155° |
| 2026-04-18 11:21 | 52.62987 | -1.88713 | 28198 ft | 412 kts | 155° |
| 2026-04-18 11:22 | 52.60573 | -1.86233 | 27755 ft | 407 kts | 155° |
| 2026-04-18 11:22 | 52.58217 | -1.83816 | 27324 ft | 402 kts | 156° |
| 2026-04-18 11:22 | 52.55864 | -1.81403 | 26904 ft | 398 kts | 156° |
| 2026-04-18 11:22 | 52.53518 | -1.78998 | 26486 ft | 394 kts | 156° |
| 2026-04-18 11:23 | 52.51200 | -1.76624 | 26072 ft | 391 kts | 156° |
| 2026-04-18 11:23 | 52.48910 | -1.74278 | 25659 ft | 387 kts | 156° |
| 2026-04-18 11:23 | 52.46629 | -1.71946 | 25248 ft | 385 kts | 156° |
| 2026-04-18 11:23 | 52.44359 | -1.69631 | 24823 ft | 382 kts | 156° |
| 2026-04-18 11:24 | 52.42108 | -1.67346 | 24397 ft | 380 kts | 156° |
| 2026-04-18 11:24 | 52.39861 | -1.65064 | 23968 ft | 378 kts | 156° |
| 2026-04-18 11:24 | 52.37631 | -1.62796 | 23486 ft | 376 kts | 156° |
| 2026-04-18 11:24 | 52.35417 | -1.60545 | 23045 ft | 373 kts | 156° |
| 2026-04-18 11:25 | 52.33226 | -1.58320 | 22599 ft | 369 kts | 156° |
| 2026-04-18 11:25 | 52.31048 | -1.56114 | 22128 ft | 366 kts | 156° |
| 2026-04-18 11:25 | 52.28892 | -1.53933 | 21681 ft | 363 kts | 156° |
| 2026-04-18 11:25 | 52.26746 | -1.51763 | 21203 ft | 361 kts | 156° |
| 2026-04-18 11:26 | 52.24627 | -1.49620 | 20798 ft | 357 kts | 156° |
| 2026-04-18 11:26 | 52.22520 | -1.47493 | 20347 ft | 356 kts | 155° |
| 2026-04-18 11:26 | 52.20522 | -1.45044 | 19949 ft | 361 kts | 146° |
| 2026-04-18 11:26 | 52.18624 | -1.42368 | 19587 ft | 360 kts | 146° |
| 2026-04-18 11:27 | 52.16752 | -1.39750 | 19230 ft | 359 kts | 147° |
| 2026-04-18 11:27 | 52.14857 | -1.37113 | 18865 ft | 357 kts | 146° |
| 2026-04-18 11:27 | 52.12970 | -1.34491 | 18508 ft | 356 kts | 147° |
| 2026-04-18 11:27 | 52.11094 | -1.31882 | 18116 ft | 354 kts | 146° |
| 2026-04-18 11:28 | 52.09230 | -1.29287 | 17760 ft | 352 kts | 146° |
| 2026-04-18 11:28 | 52.07376 | -1.26704 | 17407 ft | 350 kts | 146° |
| 2026-04-18 11:28 | 52.05533 | -1.24145 | 17050 ft | 347 kts | 146° |
| 2026-04-18 11:28 | 52.03702 | -1.21608 | 16691 ft | 345 kts | 146° |
| 2026-04-18 11:29 | 52.01880 | -1.19084 | 16396 ft | 342 kts | 146° |
| 2026-04-18 11:29 | 52.00073 | -1.16581 | 16050 ft | 340 kts | 145° |
| 2026-04-18 11:29 | 51.98275 | -1.14103 | 15705 ft | 338 kts | 145° |
| 2026-04-18 11:29 | 51.96490 | -1.11646 | 15364 ft | 336 kts | 145° |
| 2026-04-18 11:30 | 51.94706 | -1.09192 | 14832 ft | 339 kts | 145° |
| 2026-04-18 11:30 | 51.92871 | -1.06676 | 13935 ft | 352 kts | 144° |
| 2026-04-18 11:30 | 51.90997 | -1.04107 | 13453 ft | 350 kts | 144° |
| 2026-04-18 11:30 | 51.89174 | -1.01595 | 13305 ft | 337 kts | 144° |
| 2026-04-18 11:31 | 51.87420 | -0.99169 | 13154 ft | 326 kts | 144° |
| 2026-04-18 11:31 | 51.85816 | -0.96818 | 13017 ft | 308 kts | 136° |
| 2026-04-18 11:31 | 51.84623 | -0.94037 | 12858 ft | 296 kts | 121° |
| 2026-04-18 11:31 | 51.83729 | -0.91139 | 12466 ft | 289 kts | 120° |
| 2026-04-18 11:32 | 51.82842 | -0.88239 | 11988 ft | 285 kts | 120° |
| 2026-04-18 11:32 | 51.81968 | -0.85381 | 11522 ft | 283 kts | 120° |
| 2026-04-18 11:32 | 51.81102 | -0.82546 | 11046 ft | 280 kts | 119° |
| 2026-04-18 11:32 | 51.80245 | -0.79735 | 10575 ft | 277 kts | 120° |
| 2026-04-18 11:33 | 51.79398 | -0.76962 | 10142 ft | 274 kts | 120° |
| 2026-04-18 11:33 | 51.78555 | -0.74216 | 9733 ft | 274 kts | 120° |
| 2026-04-18 11:33 | 51.77712 | -0.71478 | 9489 ft | 271 kts | 120° |
| 2026-04-18 11:33 | 51.76868 | -0.68742 | 9163 ft | 271 kts | 119° |
| 2026-04-18 11:34 | 51.76030 | -0.66037 | 8924 ft | 269 kts | 119° |
| 2026-04-18 11:34 | 51.75215 | -0.63404 | 8603 ft | 266 kts | 119° |
| 2026-04-18 11:34 | 51.74372 | -0.60679 | 8118 ft | 264 kts | 118° |
| 2026-04-18 11:34 | 51.73556 | -0.58039 | 7638 ft | 261 kts | 118° |
| 2026-04-18 11:35 | 51.72713 | -0.55515 | 7249 ft | 255 kts | 127° |
| 2026-04-18 11:35 | 51.71550 | -0.53403 | 6976 ft | 250 kts | 141° |
| 2026-04-18 11:35 | 51.70259 | -0.51521 | 6751 ft | 252 kts | 140° |
| 2026-04-18 11:35 | 51.68969 | -0.49621 | 6502 ft | 250 kts | 140° |
| 2026-04-18 11:36 | 51.67680 | -0.47719 | 6167 ft | 252 kts | 140° |
| 2026-04-18 11:36 | 51.66386 | -0.45811 | 5953 ft | 251 kts | 140° |